Time;durP1;ratioP1;P1;durP2;ratioP2;P2;SDS_P1;SDS_P2;PMS_P1;PMS_P2;Temp;Humidity;BMP_temperature;BMP_pressure;BME280_temperature;BME280_humidity;BME280_pressure;Samples;Min_cycle;Max_cycle;Signal;HPM_P1;HPM_P2
2023/07/04 00:01:46;;;;;;;3.13;2.10;;;17.20;21.00;;;;;;5011787;28;20473;-73
2023/07/04 00:04:12;;;;;;;4.97;2.33;;;17.20;21.70;;;;;;5010779;28;20801;-73
2023/07/04 00:06:39;;;;;;;2.60;1.80;;;17.10;20.80;;;;;;5010704;28;20426;-73
2023/07/04 00:09:05;;;;;;;2.60;2.07;;;17.10;20.70;;;;;;5012049;28;20423;-73
2023/07/04 00:11:31;;;;;;;5.60;2.20;;;17.00;21.20;;;;;;5011755;28;20447;-73
2023/07/04 00:13:57;;;;;;;4.50;2.10;;;17.10;21.00;;;;;;5011846;28;20203;-73
2023/07/04 00:16:22;;;;;;;3.30;1.80;;;17.10;20.80;;;;;;5011989;28;20210;-73
2023/07/04 00:18:48;;;;;;;3.00;2.07;;;17.10;20.80;;;;;;5012000;28;20176;-73
2023/07/04 00:21:14;;;;;;;2.73;1.70;;;17.10;20.80;;;;;;5011825;28;20243;-72
2023/07/04 00:23:45;;;;;;;3.27;1.90;;;17.10;20.70;;;;;;5011759;28;20451;-72
2023/07/04 00:26:16;;;;;;;3.07;2.13;;;17.10;20.80;;;;;;5012079;28;20187;-72
2023/07/04 00:28:43;;;;;;;4.10;1.97;;;17.00;21.30;;;;;;5011858;28;20821;-72
2023/07/04 00:31:10;;;;;;;2.90;2.00;;;16.90;21.40;;;;;;5011816;28;20426;-73
2023/07/04 00:33:36;;;;;;;3.20;1.83;;;16.80;22.50;;;;;;5011413;28;20458;-73
2023/07/04 00:36:07;;;;;;;3.40;1.90;;;16.70;22.10;;;;;;5011706;28;20411;-73
2023/07/04 00:38:34;;;;;;;5.10;2.57;;;16.70;22.90;;;;;;5011784;28;20221;-73
2023/07/04 00:41:01;;;;;;;5.40;2.60;;;16.60;22.90;;;;;;5010670;28;21004;-73
2023/07/04 00:43:59;;;;;;;2.70;1.80;;;16.60;22.90;;;;;;5011477;28;20427;-72
2023/07/04 00:46:38;;;;;;;2.70;1.90;;;16.50;23.30;;;;;;5007621;28;20439;-73
2023/07/04 00:49:26;;;;;;;4.07;2.43;;;16.50;22.80;;;;;;5011800;28;20943;-71
2023/07/04 00:52:08;;;;;;;3.40;2.17;;;16.40;23.70;;;;;;5011377;28;20525;-72
2023/07/04 00:54:36;;;;;;;4.63;1.90;;;16.40;23.80;;;;;;5011539;28;20890;-72
2023/07/04 00:57:04;;;;;;;4.37;1.77;;;16.40;23.90;;;;;;5011659;28;20427;-73
2023/07/04 00:59:37;;;;;;;3.00;2.30;;;16.30;23.70;;;;;;5012221;28;20836;-72
2023/07/04 01:02:04;;;;;;;3.07;2.27;;;16.30;24.60;;;;;;5014872;28;20550;-72
2023/07/04 01:04:32;;;;;;;2.47;1.67;;;16.20;25.00;;;;;;5015169;28;20414;-72
2023/07/04 01:07:11;;;;;;;4.27;2.00;;;16.20;24.70;;;;;;5013736;28;20442;-72
2023/07/04 01:09:39;;;;;;;3.00;2.10;;;16.20;25.10;;;;;;5015176;28;20418;-72
2023/07/04 01:12:06;;;;;;;4.63;2.10;;;16.10;25.10;;;;;;5013409;28;20461;-72
2023/07/04 01:14:32;;;;;;;4.00;1.90;;;16.10;25.20;;;;;;5015221;28;20467;-72
2023/07/04 01:16:57;;;;;;;4.30;2.20;;;16.10;25.40;;;;;;5013681;28;20422;-72
2023/07/04 01:19:42;;;;;;;2.83;1.80;;;16.10;25.10;;;;;;5014745;28;20229;-72
2023/07/04 01:22:34;;;;;;;3.87;1.87;;;16.10;25.10;;;;;;5014586;28;20196;-72
2023/07/04 01:25:47;;;;;;;3.00;1.77;;;16.10;25.60;;;;;;5014882;28;20407;-72
2023/07/04 01:28:14;;;;;;;4.47;2.33;;;16.20;25.60;;;;;;4973475;28;20460;-72
2023/07/04 01:30:42;;;;;;;6.13;2.23;;;16.30;24.80;;;;;;5010112;28;20427;-72
2023/07/04 01:33:09;;;;;;;3.40;2.00;;;16.30;24.80;;;;;;5014259;28;20439;-72
2023/07/04 01:35:36;;;;;;;2.80;1.90;;;16.30;25.10;;;;;;5014502;28;20403;-73
2023/07/04 01:38:03;;;;;;;3.93;2.00;;;16.30;25.00;;;;;;5013324;28;20422;-72
2023/07/04 01:40:30;;;;;;;3.00;1.40;;;16.40;25.10;;;;;;5014550;28;20772;-72
2023/07/04 01:42:55;;;;;;;4.03;2.50;;;16.40;25.00;;;;;;5014207;28;20433;-72
2023/07/04 01:45:21;;;;;;;5.83;2.80;;;16.50;25.00;;;;;;5013140;28;20419;-72
2023/07/04 01:47:47;;;;;;;3.13;2.47;;;16.50;25.20;;;;;;5014396;28;20664;-72
2023/07/04 01:50:13;;;;;;;4.53;3.00;;;16.50;25.70;;;;;;5014363;28;20260;-72
2023/07/04 01:52:41;;;;;;;6.40;2.00;;;16.50;24.90;;;;;;5012658;28;20534;-73
2023/07/04 01:55:08;;;;;;;3.93;3.00;;;16.60;24.90;;;;;;5014171;28;20469;-72
2023/07/04 01:57:34;;;;;;;5.60;2.43;;;16.70;24.00;;;;;;5014182;28;20975;-72
2023/07/04 02:00:00;;;;;;;3.73;2.13;;;16.80;24.00;;;;;;5014174;28;20494;-72
2023/07/04 02:02:25;;;;;;;4.17;2.47;;;16.80;23.70;;;;;;5014326;28;21027;-72
2023/07/04 02:04:51;;;;;;;3.40;2.17;;;16.80;23.60;;;;;;5014235;28;20524;-72
2023/07/04 02:07:16;;;;;;;2.10;1.30;;;16.80;24.10;;;;;;5014175;28;20176;-72
2023/07/04 02:09:43;;;;;;;3.73;2.33;;;16.80;24.10;;;;;;5014082;28;20183;-72
2023/07/04 02:12:09;;;;;;;7.20;2.70;;;16.90;25.20;;;;;;5013103;28;20199;-72
2023/07/04 02:14:35;;;;;;;2.40;2.20;;;16.80;26.50;;;;;;5012594;28;20475;-72
2023/07/04 02:17:01;;;;;;;5.30;2.03;;;16.80;27.30;;;;;;5013895;28;20916;-72
2023/07/04 02:19:27;;;;;;;4.23;2.20;;;16.80;28.20;;;;;;5013815;28;20510;-73
2023/07/04 02:21:52;;;;;;;4.87;2.50;;;16.80;28.50;;;;;;5014009;28;20279;-72
2023/07/04 02:24:18;;;;;;;3.10;1.90;;;16.70;28.60;;;;;;5013851;28;20703;-72
2023/07/04 02:26:43;;;;;;;3.00;1.63;;;16.70;28.70;;;;;;5013753;28;20665;-72
2023/07/04 02:29:09;;;;;;;3.10;2.33;;;16.60;28.70;;;;;;5013709;28;20260;-72
2023/07/04 02:31:34;;;;;;;4.40;2.37;;;16.70;29.40;;;;;;5013302;28;20208;-73
2023/07/04 02:34:00;;;;;;;4.00;2.00;;;16.80;29.80;;;;;;5013511;28;20271;-72
2023/07/04 02:36:25;;;;;;;2.73;1.70;;;16.70;29.10;;;;;;5013542;28;20176;-73
2023/07/04 02:38:51;;;;;;;3.00;1.80;;;16.70;30.40;;;;;;5013661;28;20200;-72
2023/07/04 02:41:16;;;;;;;4.27;2.50;;;16.70;30.00;;;;;;5013413;28;20192;-72
2023/07/04 02:43:42;;;;;;;5.30;1.77;;;16.70;30.40;;;;;;5013193;28;20230;-72
2023/07/04 02:46:08;;;;;;;2.60;1.77;;;16.70;30.60;;;;;;5013434;28;20211;-73
2023/07/04 02:48:34;;;;;;;2.83;1.83;;;16.70;30.50;;;;;;5013353;28;20172;-73
2023/07/04 02:51:00;;;;;;;4.00;2.03;;;16.70;30.90;;;;;;5013173;28;20937;-72
2023/07/04 02:53:26;;;;;;;2.43;1.77;;;16.60;31.20;;;;;;5011593;28;20462;-72
2023/07/04 02:55:53;;;;;;;3.70;2.03;;;16.50;31.40;;;;;;5013239;28;20442;-72
2023/07/04 02:58:19;;;;;;;2.60;1.73;;;16.40;31.30;;;;;;5013158;28;20411;-72
2023/07/04 03:00:47;;;;;;;3.80;2.20;;;16.30;31.70;;;;;;5013061;28;20422;-73
2023/07/04 03:03:13;;;;;;;3.80;1.20;;;16.20;32.40;;;;;;5012708;28;20212;-73
2023/07/04 03:05:40;;;;;;;3.10;1.63;;;16.10;32.30;;;;;;5013018;28;20439;-73
2023/07/04 03:08:05;;;;;;;3.20;1.83;;;16.00;32.80;;;;;;5012947;28;20411;-73
2023/07/04 03:10:31;;;;;;;2.33;1.43;;;16.00;33.70;;;;;;5012957;28;20406;-73
2023/07/04 03:12:57;;;;;;;3.23;2.10;;;15.90;34.00;;;;;;5012549;28;20202;-73
2023/07/04 03:15:23;;;;;;;2.70;1.50;;;15.90;34.10;;;;;;5012900;28;20466;-73
2023/07/04 03:17:49;;;;;;;3.47;2.10;;;15.90;35.70;;;;;;5012745;28;20221;-73
2023/07/04 03:20:15;;;;;;;2.70;1.70;;;15.90;36.20;;;;;;5012719;28;20215;-73
2023/07/04 03:22:41;;;;;;;3.97;2.00;;;15.90;36.20;;;;;;5012019;28;20434;-72
2023/07/04 03:25:08;;;;;;;2.13;1.60;;;16.00;35.60;;;;;;5012144;28;20422;-73
2023/07/04 03:27:36;;;;;;;2.63;2.00;;;16.10;36.00;;;;;;5012686;28;20447;-73
2023/07/04 03:30:03;;;;;;;2.10;1.40;;;16.10;36.10;;;;;;5012551;28;20414;-73
2023/07/04 03:32:29;;;;;;;2.90;1.40;;;16.20;36.50;;;;;;5012188;28;20909;-73
2023/07/04 03:35:01;;;;;;;3.03;1.80;;;16.20;34.70;;;;;;5012480;28;20498;-72
2023/07/04 03:37:33;;;;;;;2.83;2.00;;;16.20;34.60;;;;;;5012583;28;20180;-72
2023/07/04 03:40:00;;;;;;;2.60;1.50;;;16.30;35.00;;;;;;5012503;28;20497;-73
2023/07/04 03:42:26;;;;;;;7.13;2.30;;;16.30;34.70;;;;;;5012246;28;20438;-72
2023/07/04 03:44:52;;;;;;;2.43;1.67;;;16.30;35.40;;;;;;5012457;28;20791;-73
2023/07/04 03:47:18;;;;;;;2.83;1.90;;;16.30;35.00;;;;;;5012267;28;20425;-73
2023/07/04 03:49:43;;;;;;;2.80;2.03;;;16.30;34.80;;;;;;5012339;28;20418;-73
2023/07/04 03:52:09;;;;;;;5.53;2.13;;;16.30;34.80;;;;;;5011981;28;20227;-72
2023/07/04 03:54:35;;;;;;;2.47;1.50;;;16.40;34.40;;;;;;5012375;28;20422;-72
2023/07/04 03:57:00;;;;;;;3.37;1.57;;;16.40;32.90;;;;;;5012152;28;20419;-73
2023/07/04 03:59:26;;;;;;;3.27;2.00;;;16.50;31.40;;;;;;5012727;28;20250;-73
2023/07/04 04:01:52;;;;;;;3.10;1.80;;;16.60;30.60;;;;;;5011685;28;20263;-73
2023/07/04 04:04:17;;;;;;;2.50;1.50;;;16.60;30.90;;;;;;5012109;28;20180;-73
2023/07/04 04:06:43;;;;;;;2.67;1.53;;;16.70;30.00;;;;;;5012155;28;20175;-73
2023/07/04 04:09:10;;;;;;;3.67;1.83;;;16.70;30.10;;;;;;5012098;28;20263;-73
2023/07/04 04:11:36;;;;;;;3.27;1.93;;;16.80;29.80;;;;;;5011414;28;20605;-72
2023/07/04 04:14:01;;;;;;;4.47;2.43;;;16.90;29.70;;;;;;5011991;28;20558;-73
2023/07/04 04:16:27;;;;;;;3.33;1.33;;;16.90;29.60;;;;;;5011861;28;20521;-73
2023/07/04 04:18:52;;;;;;;2.90;1.57;;;17.00;28.00;;;;;;5012015;28;20200;-73
2023/07/04 04:21:18;;;;;;;3.70;2.40;;;17.00;28.50;;;;;;5011873;28;20238;-73
2023/07/04 04:23:43;;;;;;;2.33;1.50;;;17.10;28.30;;;;;;5011689;28;20184;-73
2023/07/04 04:26:09;;;;;;;3.30;2.07;;;17.10;28.80;;;;;;5012005;28;20234;-73
2023/07/04 04:28:35;;;;;;;2.87;1.47;;;17.30;27.90;;;;;;5012077;28;20195;-73
2023/07/04 04:31:01;;;;;;;3.10;1.67;;;17.40;27.70;;;;;;5011684;28;20419;-73
2023/07/04 04:33:26;;;;;;;2.80;1.93;;;17.60;27.80;;;;;;5011607;28;20180;-73
2023/07/04 04:35:52;;;;;;;3.20;1.53;;;17.70;26.50;;;;;;5014486;28;20184;-73
2023/07/04 04:38:17;;;;;;;2.57;1.53;;;17.90;25.60;;;;;;5015804;28;20180;-73
2023/07/04 04:40:43;;;;;;;3.20;1.80;;;18.10;25.00;;;;;;5015734;28;20180;-73
2023/07/04 04:43:09;;;;;;;2.50;1.53;;;18.20;24.00;;;;;;5015331;28;20612;-74
2023/07/04 04:45:36;;;;;;;3.00;1.73;;;18.30;24.10;;;;;;5015478;28;20437;-73
2023/07/04 04:48:01;;;;;;;2.30;1.70;;;18.40;23.50;;;;;;5015628;28;20645;-72
2023/07/04 04:50:33;;;;;;;5.40;2.00;;;18.50;22.70;;;;;;5015475;28;20430;-73
2023/07/04 04:52:59;;;;;;;4.03;1.77;;;18.50;23.00;;;;;;5015132;28;20198;-73
2023/07/04 04:55:25;;;;;;;4.77;2.50;;;18.50;23.10;;;;;;5015161;28;20462;-73
2023/07/04 04:57:52;;;;;;;2.83;1.77;;;18.60;23.30;;;;;;5015389;28;20407;-73
2023/07/04 05:00:18;;;;;;;5.13;2.63;;;18.60;21.10;;;;;;5015151;28;20411;-73
2023/07/04 05:02:46;;;;;;;2.60;1.80;;;18.60;20.30;;;;;;5014819;28;20457;-73
2023/07/04 05:05:13;;;;;;;3.03;1.90;;;18.70;20.40;;;;;;5015218;28;20423;-73
2023/07/04 05:07:38;;;;;;;3.30;1.67;;;18.70;20.10;;;;;;5015477;28;20480;-73
2023/07/04 05:10:05;;;;;;;2.53;1.73;;;18.80;19.60;;;;;;5015187;28;20411;-73
2023/07/04 05:12:30;;;;;;;7.23;2.63;;;18.90;18.80;;;;;;5014702;28;20204;-73
2023/07/04 05:14:56;;;;;;;3.23;2.30;;;19.00;18.30;;;;;;5014579;28;21060;-71
2023/07/04 05:17:23;;;;;;;2.33;1.60;;;19.20;17.90;;;;;;5015070;28;20172;-71
2023/07/04 05:19:49;;;;;;;4.93;1.87;;;19.40;17.00;;;;;;5014902;28;20245;-70
2023/07/04 05:22:16;;;;;;;2.80;1.70;;;19.70;15.30;;;;;;5014609;28;20430;-69
2023/07/04 05:24:41;;;;;;;2.67;1.80;;;20.00;13.50;;;;;;5013581;28;20498;-69
2023/07/04 05:27:07;;;;;;;3.10;1.83;;;20.20;13.30;;;;;;5015021;28;21256;-69
2023/07/04 05:29:33;;;;;;;3.40;2.60;;;20.40;11.50;;;;;;5014874;28;20219;-70
2023/07/04 05:31:58;;;;;;;7.50;2.60;;;20.70;10.20;;;;;;5014638;28;20801;-69
2023/07/04 05:34:25;;;;;;;3.33;2.33;;;21.00;10.10;;;;;;5013300;28;20243;-70
2023/07/04 05:36:51;;;;;;;4.13;2.60;;;21.50;8.60;;;;;;5014469;28;20178;-70
2023/07/04 05:39:16;;;;;;;8.97;3.53;;;22.00;6.30;;;;;;5014335;28;20502;-68
2023/07/04 05:41:42;;;;;;;7.80;3.63;;;22.60;4.80;;;;;;5014070;28;20199;-69
2023/07/04 05:44:09;;;;;;;4.50;2.40;;;22.80;3.20;;;;;;5014334;28;20675;-69
2023/07/04 05:46:35;;;;;;;3.83;2.30;;;23.00;1.60;;;;;;5013321;28;20214;-68
2023/07/04 05:49:01;;;;;;;3.90;2.97;;;22.60;1.00;;;;;;5014486;28;20442;-71
2023/07/04 05:51:28;;;;;;;5.03;3.30;;;22.60;2.10;;;;;;5014099;28;20442;-68
2023/07/04 05:53:54;;;;;;;3.43;2.43;;;22.90;1.00;;;;;;5014017;28;20477;-69
2023/07/04 05:56:25;;;;;;;4.10;2.90;;;22.80;1.00;;;;;;5014089;28;20418;-69
2023/07/04 05:58:53;;;;;;;6.90;3.33;;;22.60;1.00;;;;;;5014083;28;20411;-69
2023/07/04 06:01:29;;;;;;;4.30;2.47;;;22.60;1.00;;;;;;5013764;28;20791;-69
2023/07/04 06:03:56;;;;;;;6.83;2.57;;;22.20;1.90;;;;;;5013864;28;20434;-70
2023/07/04 06:06:25;;;;;;;8.57;2.60;;;22.30;1.90;;;;;;5013939;28;20407;-70
2023/07/04 06:08:52;;;;;;;8.63;4.87;;;22.20;1.00;;;;;;5013953;28;20944;-70
2023/07/04 06:11:21;;;;;;;5.20;2.90;;;22.20;1.80;;;;;;5013550;28;20443;-70
2023/07/04 06:13:47;;;;;;;4.43;2.60;;;22.40;1.00;;;;;;5013401;28;20451;-70
2023/07/04 06:16:12;;;;;;;4.70;2.60;;;22.50;1.70;;;;;;5013740;28;20502;-71
2023/07/04 06:18:38;;;;;;;4.70;2.53;;;22.50;1.20;;;;;;5014442;28;20175;-70
2023/07/04 06:21:16;;;;;;;10.10;5.60;;;22.50;1.10;;;;;;5013841;28;20179;-70
2023/07/04 06:23:41;;;;;;;5.50;3.00;;;22.70;1.00;;;;;;5013377;28;20665;-70
2023/07/04 06:26:08;;;;;;;3.93;2.00;;;22.30;1.00;;;;;;5013791;28;20564;-70
2023/07/04 06:28:36;;;;;;;3.80;2.43;;;22.20;1.00;;;;;;5014028;28;20211;-69
2023/07/04 06:31:12;;;;;;;6.70;3.20;;;22.10;1.10;;;;;;5012247;28;20951;-70
2023/07/04 06:33:37;;;;;;;4.23;2.30;;;21.90;1.90;;;;;;5013471;28;20457;-70
2023/07/04 06:36:06;;;;;;;5.97;3.47;;;22.00;1.00;;;;;;5013964;28;20415;-70
2023/07/04 06:38:32;;;;;;;4.50;2.83;;;22.10;1.10;;;;;;5013853;28;20266;-71
2023/07/04 06:41:00;;;;;;;5.00;2.50;;;22.30;1.20;;;;;;5013670;28;20497;-72
2023/07/04 06:43:27;;;;;;;4.43;2.60;;;22.50;1.00;;;;;;5013433;28;20194;-71
2023/07/04 06:45:54;;;;;;;5.10;2.60;;;22.60;1.00;;;;;;5013473;28;20426;-70
2023/07/04 06:48:24;;;;;;;5.57;4.00;;;22.90;1.00;;;;;;5013273;28;20775;-70
2023/07/04 06:51:12;;;;;;;5.47;3.17;;;23.00;1.00;;;;;;5013338;28;20753;-70
2023/07/04 06:53:38;;;;;;;5.83;3.23;;;23.20;1.00;;;;;;5013031;28;20454;-67
2023/07/04 06:56:13;;;;;;;5.93;2.70;;;23.40;1.00;;;;;;5013173;28;20726;-70
2023/07/04 06:58:41;;;;;;;4.13;2.50;;;23.90;1.00;;;;;;5013006;28;20402;-70
2023/07/04 07:01:09;;;;;;;6.33;3.40;;;25.00;1.00;;;;;;5011869;28;20925;-69
2023/07/04 07:03:35;;;;;;;4.70;3.53;;;27.70;1.00;;;;;;5012992;28;20816;-70
2023/07/04 07:06:05;;;;;;;4.10;3.70;;;29.30;1.00;;;;;;5013139;28;20418;-71
2023/07/04 07:08:32;;;;;;;4.07;3.67;;;31.30;1.00;;;;;;5012982;28;20178;-70
2023/07/04 07:10:59;;;;;;;6.33;4.43;;;31.90;1.00;;;;;;5012940;28;20419;-69
2023/07/04 07:13:26;;;;;;;5.20;4.70;;;31.10;1.00;;;;;;5013457;28;20820;-71
2023/07/04 07:15:53;;;;;;;6.37;4.33;;;30.70;1.00;;;;;;5012840;28;20415;-70
2023/07/04 07:18:18;;;;;;;5.47;4.23;;;28.70;1.00;;;;;;5011653;28;20540;-70
2023/07/04 07:20:44;;;;;;;4.23;3.53;;;27.40;1.00;;;;;;5011087;28;20858;-70
2023/07/04 07:23:10;;;;;;;4.33;3.93;;;27.70;1.00;;;;;;5011853;28;20227;-69
2023/07/04 07:25:36;;;;;;;73.70;20.20;;;27.10;1.00;;;;;;5005705;28;20198;-70
2023/07/04 07:28:02;;;;;;;6.83;4.67;;;26.80;1.00;;;;;;5005515;28;20450;-70
2023/07/04 07:30:28;;;;;;;4.30;3.90;;;26.80;1.00;;;;;;5007405;28;20427;-71
2023/07/04 07:32:53;;;;;;;5.80;4.90;;;26.30;1.00;;;;;;5011572;28;20537;-71
2023/07/04 07:35:19;;;;;;;5.37;4.07;;;26.10;1.00;;;;;;4999034;28;20216;-71
2023/07/04 07:37:44;;;;;;;8.60;5.73;;;25.70;1.00;;;;;;4992911;28;20181;-70
2023/07/04 07:40:12;;;;;;;5.40;4.40;;;25.60;1.00;;;;;;4994277;28;20173;-71
2023/07/04 07:42:37;;;;;;;8.70;3.97;;;25.30;1.00;;;;;;5011818;28;20195;-72
2023/07/04 07:45:03;;;;;;;4.70;4.00;;;25.00;1.00;;;;;;5010835;28;20411;-71
2023/07/04 07:47:29;;;;;;;7.20;3.50;;;24.80;1.00;;;;;;4998853;28;20184;-73
2023/07/04 07:49:55;;;;;;;3.90;3.60;;;24.90;1.00;;;;;;4992173;28;20448;-71
2023/07/04 07:52:21;;;;;;;7.37;3.87;;;24.80;1.00;;;;;;4987816;28;20510;-71
2023/07/04 07:54:47;;;;;;;3.30;2.80;;;24.70;1.00;;;;;;4993371;28;20478;-71
2023/07/04 07:57:12;;;;;;;4.20;3.70;;;25.00;1.00;;;;;;5008356;28;20419;-71
2023/07/04 07:59:38;;;;;;;4.23;3.83;;;25.10;1.00;;;;;;5008603;28;20218;-69
2023/07/04 08:02:03;;;;;;;4.37;3.80;;;25.10;1.00;;;;;;5028702;22;20665;-69
2023/07/04 08:04:29;;;;;;;5.47;4.77;;;26.00;1.00;;;;;;4992543;28;20192;-69
2023/07/04 08:06:55;;;;;;;4.50;4.03;;;26.40;1.00;;;;;;4992643;28;20180;-69
2023/07/04 08:09:20;;;;;;;4.43;3.80;;;26.30;1.00;;;;;;4992007;28;20211;-73
2023/07/04 08:11:48;;;;;;;13.20;5.23;;;26.10;1.00;;;;;;4992709;28;20204;-71
2023/07/04 08:14:14;;;;;;;7.97;4.20;;;26.20;1.00;;;;;;4992888;28;20559;-71
2023/07/04 08:16:45;;;;;;;6.73;3.83;;;26.20;1.00;;;;;;4992576;28;20472;-69
2023/07/04 08:19:11;;;;;;;12.47;5.90;;;26.90;1.00;;;;;;4992548;28;20415;-72
2023/07/04 08:21:36;;;;;;;4.90;4.50;;;27.30;1.00;;;;;;4992668;28;20459;-72
2023/07/04 08:24:03;;;;;;;6.50;4.60;;;27.20;1.00;;;;;;4979243;28;20921;-70
2023/07/04 08:26:28;;;;;;;5.10;4.70;;;27.60;1.00;;;;;;4971609;28;20288;-72
2023/07/04 08:28:55;;;;;;;5.50;4.90;;;28.20;1.00;;;;;;4990443;28;20431;-71
2023/07/04 08:31:22;;;;;;;4.37;4.07;;;28.60;1.00;;;;;;4992495;28;20665;-72
2023/07/04 08:33:48;;;;;;;5.77;5.00;;;28.80;1.00;;;;;;4991550;28;21027;-71
2023/07/04 08:36:15;;;;;;;5.30;4.90;;;30.10;1.00;;;;;;4991992;28;20427;-72
2023/07/04 08:38:42;;;;;;;5.40;4.90;;;30.50;1.00;;;;;;4992398;28;20423;-71
2023/07/04 08:41:21;;;;;;;5.90;5.30;;;30.60;1.00;;;;;;4991815;28;20478;-71
2023/07/04 08:43:56;;;;;;;5.80;4.33;;;31.40;1.00;;;;;;4987374;28;20452;-70
2023/07/04 08:46:22;;;;;;;5.30;4.80;;;33.00;1.00;;;;;;4973070;28;20428;-71
2023/07/04 08:48:48;;;;;;;5.30;4.90;;;33.30;1.00;;;;;;4973372;28;20527;-70
2023/07/04 08:51:22;;;;;;;5.03;4.73;;;32.30;1.00;;;;;;4977470;28;20653;-71
2023/07/04 08:53:53;;;;;;;12.33;6.10;;;30.80;1.00;;;;;;4990142;28;20475;-70
2023/07/04 08:56:31;;;;;;;9.30;5.70;;;31.00;1.00;;;;;;4991193;28;20470;-71
2023/07/04 08:59:21;;;;;;;4.70;4.30;;;30.70;1.00;;;;;;4971216;28;20444;-71
2023/07/04 09:01:56;;;;;;;5.20;4.70;;;30.50;1.00;;;;;;4972099;28;20449;-70
2023/07/04 09:04:35;;;;;;;5.97;5.47;;;31.10;1.00;;;;;;4973322;28;20448;-71
2023/07/04 09:07:17;;;;;;;6.20;5.37;;;31.00;1.00;;;;;;4973026;28;20440;-71
2023/07/04 09:10:10;;;;;;;23.77;11.90;;;29.70;1.00;;;;;;4976865;28;20448;-70
2023/07/04 09:12:37;;;;;;;8.07;5.20;;;29.90;1.00;;;;;;4990442;28;20446;-70
2023/07/04 09:15:27;;;;;;;5.87;5.27;;;30.30;1.00;;;;;;4990837;28;20475;-70
2023/07/04 09:18:03;;;;;;;6.77;5.43;;;31.70;1.00;;;;;;4991320;28;20412;-70
2023/07/04 09:20:31;;;;;;;6.20;5.60;;;32.30;1.00;;;;;;4989788;28;20452;-71
2023/07/04 09:22:57;;;;;;;7.20;5.13;;;32.00;1.00;;;;;;4993736;28;20446;-70
2023/07/04 09:25:23;;;;;;;5.47;4.93;;;31.10;1.00;;;;;;4996048;28;20416;-71
2023/07/04 09:27:48;;;;;;;4.63;4.30;;;30.30;1.00;;;;;;4995451;28;20185;-70
2023/07/04 09:30:14;;;;;;;8.03;5.67;;;29.40;1.00;;;;;;4994899;28;20525;-71
2023/07/04 09:32:40;;;;;;;6.87;6.07;;;28.40;1.00;;;;;;4995357;28;20448;-71
2023/07/04 09:35:07;;;;;;;9.37;5.50;;;28.30;1.00;;;;;;4995724;28;20220;-72
2023/07/04 09:37:53;;;;;;;6.33;5.13;;;28.00;1.00;;;;;;4995448;28;20643;-71
2023/07/04 09:40:39;;;;;;;5.30;4.80;;;28.40;1.00;;;;;;4994994;28;20851;-70
2023/07/04 09:43:05;;;;;;;6.37;5.57;;;27.60;1.00;;;;;;4995070;28;20935;-71
2023/07/04 09:45:32;;;;;;;5.87;4.70;;;27.60;1.00;;;;;;4995032;28;20423;-71
2023/07/04 09:47:58;;;;;;;5.67;5.13;;;27.60;1.00;;;;;;4995418;28;20184;-71
2023/07/04 09:50:26;;;;;;;5.60;5.10;;;27.20;1.00;;;;;;4994756;28;20439;-71
2023/07/04 09:53:18;;;;;;;6.33;5.73;;;27.30;1.00;;;;;;4994485;28;20212;-71
2023/07/04 09:55:57;;;;;;;8.57;5.07;;;27.40;1.00;;;;;;4995137;28;20942;-71
2023/07/04 09:58:24;;;;;;;5.20;4.70;;;27.40;1.00;;;;;;4994962;28;20388;-70
2023/07/04 10:01:16;;;;;;;5.37;4.97;;;27.40;1.00;;;;;;4994651;28;20435;-71
2023/07/04 10:03:45;;;;;;;5.67;5.10;;;27.60;1.00;;;;;;4994860;28;20862;-71
2023/07/04 10:06:11;;;;;;;5.80;5.23;;;27.40;1.00;;;;;;4994693;28;20443;-71
2023/07/04 10:08:57;;;;;;;5.93;5.43;;;27.40;1.00;;;;;;4994674;28;20503;-72
2023/07/04 10:11:34;;;;;;;6.13;5.13;;;27.40;1.00;;;;;;4974760;28;20961;-71
2023/07/04 10:14:03;;;;;;;5.63;4.93;;;27.20;1.00;;;;;;4989639;28;20502;-71
2023/07/04 10:16:29;;;;;;;6.03;5.53;;;27.00;1.00;;;;;;4994372;28;20420;-71
2023/07/04 10:19:12;;;;;;;6.07;4.80;;;26.50;1.00;;;;;;4994081;28;20467;-71
2023/07/04 10:21:42;;;;;;;7.63;5.73;;;26.00;1.00;;;;;;4973805;28;20600;-71
2023/07/04 10:24:13;;;;;;;5.30;4.80;;;25.60;1.00;;;;;;4974906;28;20431;-71
2023/07/04 10:26:39;;;;;;;6.47;4.90;;;25.10;1.00;;;;;;4974846;28;20421;-70
2023/07/04 10:29:05;;;;;;;5.03;4.63;;;25.00;1.00;;;;;;4978127;28;20794;-71
2023/07/04 10:31:30;;;;;;;5.60;5.10;;;25.10;1.00;;;;;;4978458;28;20193;-71
2023/07/04 10:34:01;;;;;;;5.80;4.70;;;24.70;1.00;;;;;;4978420;28;20830;-68
2023/07/04 10:36:31;;;;;;;6.90;4.93;;;24.50;1.00;;;;;;4994214;28;20786;-68
2023/07/04 10:39:01;;;;;;;6.10;5.57;;;24.40;1.00;;;;;;4983553;28;20428;-69
2023/07/04 10:42:06;;;;;;;4.53;4.17;;;24.60;1.00;;;;;;4993523;28;20420;-68
2023/07/04 10:44:34;;;;;;;5.10;4.60;;;24.70;1.00;;;;;;4993710;28;20852;-69
2023/07/04 10:47:04;;;;;;;4.67;4.17;;;24.80;1.00;;;;;;4993576;28;20837;-68
2023/07/04 10:49:36;;;;;;;4.37;3.97;;;24.50;1.00;;;;;;4993525;28;20434;-68
2023/07/04 10:52:08;;;;;;;8.13;4.40;;;24.20;1.00;;;;;;4993252;28;20446;-68
2023/07/04 10:54:33;;;;;;;4.77;4.33;;;24.10;1.00;;;;;;4993419;28;20475;-68
2023/07/04 10:57:07;;;;;;;5.30;4.90;;;24.70;1.00;;;;;;4993421;28;20751;-69
2023/07/04 10:59:36;;;;;;;4.23;3.87;;;25.00;1.00;;;;;;4993223;28;20214;-68
2023/07/04 11:02:27;;;;;;;8.57;4.70;;;24.90;1.00;;;;;;4993145;28;20455;-69
2023/07/04 11:05:08;;;;;;;5.33;4.67;;;24.80;1.00;;;;;;4993592;28;20411;-69
2023/07/04 11:07:36;;;;;;;7.17;4.43;;;24.90;1.00;;;;;;4993248;28;20928;-68
2023/07/04 11:10:04;;;;;;;5.10;4.70;;;24.80;1.00;;;;;;4993686;28;20415;-69
2023/07/04 11:12:33;;;;;;;5.47;4.97;;;25.20;1.00;;;;;;4991587;28;20463;-68
2023/07/04 11:15:03;;;;;;;4.57;4.17;;;25.50;1.00;;;;;;4993226;28;20987;-69
2023/07/04 11:17:33;;;;;;;5.50;5.00;;;25.70;1.00;;;;;;4993102;28;20507;-69
2023/07/04 11:20:10;;;;;;;5.00;4.57;;;26.10;1.00;;;;;;4993184;28;20420;-69
2023/07/04 11:22:43;;;;;;;4.67;4.33;;;26.10;1.00;;;;;;4992710;28;20470;-69
2023/07/04 11:25:31;;;;;;;5.57;4.70;;;26.40;1.00;;;;;;4993357;28;20416;-69
2023/07/04 11:28:34;;;;;;;5.40;4.90;;;26.50;1.00;;;;;;4993437;28;20422;-69
2023/07/04 11:31:19;;;;;;;4.80;4.40;;;26.90;1.00;;;;;;4932901;29;20849;-68
2023/07/04 11:33:54;;;;;;;6.17;4.60;;;26.80;1.00;;;;;;4988939;28;20823;-69
2023/07/04 11:36:24;;;;;;;4.90;4.50;;;27.10;1.00;;;;;;4992630;28;20418;-69
2023/07/04 11:38:57;;;;;;;4.63;4.20;;;27.30;1.00;;;;;;4992741;28;20464;-69
2023/07/04 11:41:29;;;;;;;5.37;4.97;;;27.50;1.00;;;;;;4992645;28;20404;-69
2023/07/04 11:43:57;;;;;;;4.73;4.37;;;27.60;1.00;;;;;;4992080;28;20432;-69
2023/07/04 11:46:28;;;;;;;8.23;4.77;;;27.40;1.00;;;;;;4992775;28;20412;-69
2023/07/04 11:48:56;;;;;;;4.63;4.30;;;27.10;1.00;;;;;;4992700;28;20420;-69
2023/07/04 11:51:25;;;;;;;5.83;5.27;;;26.90;1.00;;;;;;4992219;28;20465;-68
2023/07/04 11:53:57;;;;;;;5.43;4.93;;;26.80;1.00;;;;;;4992270;28;20539;-69
2023/07/04 11:56:23;;;;;;;4.70;4.30;;;27.20;1.00;;;;;;4992593;28;20735;-69
2023/07/04 11:59:11;;;;;;;5.10;4.67;;;27.50;1.00;;;;;;4992334;28;20491;-69
2023/07/04 12:01:52;;;;;;;5.13;4.30;;;27.70;1.00;;;;;;4991654;28;20802;-69
2023/07/04 12:04:45;;;;;;;5.60;4.50;;;27.90;1.00;;;;;;4992580;28;20458;-71
2023/07/04 12:07:22;;;;;;;4.30;4.00;;;27.80;1.00;;;;;;4992415;28;20897;-70
2023/07/04 12:10:06;;;;;;;4.97;4.57;;;27.70;1.00;;;;;;4992167;28;20412;-68
2023/07/04 12:12:34;;;;;;;4.60;4.20;;;27.30;1.00;;;;;;4991541;28;20506;-68
2023/07/04 12:15:08;;;;;;;4.90;4.50;;;27.00;1.00;;;;;;4991963;28;21064;-69
2023/07/04 12:17:41;;;;;;;4.80;4.37;;;26.90;1.00;;;;;;4992775;28;20825;-70
2023/07/04 12:20:12;;;;;;;5.30;4.37;;;26.60;1.00;;;;;;4992242;28;20397;-69
2023/07/04 12:22:51;;;;;;;16.90;7.40;;;26.60;1.00;;;;;;4991940;28;20455;-69
2023/07/04 12:25:33;;;;;;;6.27;5.67;;;26.90;1.00;;;;;;4992271;28;20934;-69
2023/07/04 12:28:01;;;;;;;8.07;4.67;;;27.40;1.00;;;;;;4992166;28;20420;-69
2023/07/04 12:30:27;;;;;;;5.00;4.60;;;27.80;1.00;;;;;;4990958;28;20639;-69
2023/07/04 12:32:53;;;;;;;6.00;5.50;;;27.60;1.00;;;;;;4992005;28;20456;-69
2023/07/04 12:35:25;;;;;;;4.80;4.40;;;27.70;1.00;;;;;;4990543;28;20208;-70
2023/07/04 12:37:54;;;;;;;5.10;4.70;;;27.70;1.00;;;;;;4990899;28;20176;-69
2023/07/04 12:40:23;;;;;;;5.90;5.30;;;27.60;1.00;;;;;;4992143;28;20408;-69
2023/07/04 12:42:49;;;;;;;4.80;4.50;;;27.60;1.00;;;;;;4991499;28;20534;-69
2023/07/04 12:45:20;;;;;;;5.50;4.93;;;27.80;1.00;;;;;;4992038;28;20415;-69
2023/07/04 12:47:47;;;;;;;5.83;5.37;;;28.10;1.00;;;;;;4992176;28;20177;-69
2023/07/04 12:50:15;;;;;;;5.60;5.10;;;27.80;1.00;;;;;;4991921;28;20420;-67
2023/07/04 12:52:42;;;;;;;5.50;4.77;;;27.80;1.00;;;;;;4991408;28;20513;-67
2023/07/04 12:55:41;;;;;;;7.10;4.57;;;28.00;1.00;;;;;;4991712;28;20471;-68
2023/07/04 12:58:10;;;;;;;4.43;4.03;;;28.20;1.00;;;;;;4992555;28;20830;-68
2023/07/04 13:00:56;;;;;;;4.03;3.73;;;28.30;1.00;;;;;;4995560;28;20438;-68
2023/07/04 13:03:25;;;;;;;4.40;4.10;;;27.70;1.00;;;;;;4994814;28;20466;-68
2023/07/04 13:05:51;;;;;;;4.90;4.40;;;27.90;1.00;;;;;;4995337;28;20411;-68